Time;durP1;ratioP1;P1;durP2;ratioP2;P2;SDS_P1;SDS_P2;PMS_P1;PMS_P2;Temp;Humidity;BMP_temperature;BMP_pressure;BME280_temperature;BME280_humidity;BME280_pressure;Samples;Min_cycle;Max_cycle;Signal;HPM_P1;HPM_P2
2022/06/16 00:00:05;;;;;;;1.27;1.17;;;19.20;99.90;;;;;;5031040;28;20400;-66
2022/06/16 00:02:31;;;;;;;0.40;0.20;;;19.20;99.90;;;;;;5032292;28;20767;-66
2022/06/16 00:04:57;;;;;;;0.40;0.20;;;19.20;99.90;;;;;;5031974;28;20399;-66
2022/06/16 00:07:23;;;;;;;0.40;0.27;;;19.20;99.90;;;;;;5032855;28;20390;-66
2022/06/16 00:09:49;;;;;;;11.10;0.70;;;19.10;99.90;;;;;;5032348;28;20399;-66
2022/06/16 00:12:15;;;;;;;0.40;0.20;;;19.20;99.90;;;;;;5030115;28;20430;-66
2022/06/16 00:14:41;;;;;;;1.70;0.90;;;19.20;99.90;;;;;;5031922;28;20449;-66
2022/06/16 00:17:07;;;;;;;0.40;0.20;;;19.10;99.90;;;;;;5031202;28;20386;-65
2022/06/16 00:19:33;;;;;;;0.40;0.20;;;19.10;99.90;;;;;;5032297;28;20864;-66
2022/06/16 00:21:59;;;;;;;0.40;0.30;;;19.10;99.90;;;;;;5030679;28;20432;-66
2022/06/16 00:24:27;;;;;;;0.40;0.30;;;19.20;99.90;;;;;;5031925;28;20476;-66
2022/06/16 00:26:55;;;;;;;0.40;0.30;;;19.10;99.90;;;;;;5031469;28;20394;-66
2022/06/16 00:29:22;;;;;;;0.40;0.20;;;19.00;99.90;;;;;;5030344;28;20518;-66
2022/06/16 00:31:47;;;;;;;0.50;0.50;;;19.10;99.90;;;;;;5031753;28;20399;-66
2022/06/16 00:34:13;;;;;;;0.40;0.30;;;19.00;99.90;;;;;;5031039;28;20438;-66
2022/06/16 00:36:39;;;;;;;0.40;0.30;;;18.90;99.90;;;;;;5032156;28;20508;-66
2022/06/16 00:39:05;;;;;;;0.40;0.30;;;18.90;99.90;;;;;;5030737;28;20505;-66
2022/06/16 00:41:31;;;;;;;0.60;0.60;;;18.90;99.90;;;;;;5032253;28;20390;-66
2022/06/16 00:44:00;;;;;;;0.40;0.30;;;18.90;99.90;;;;;;5032280;28;20874;-66
2022/06/16 00:46:28;;;;;;;0.40;0.30;;;18.90;99.90;;;;;;5031243;28;20394;-66
2022/06/16 00:49:00;;;;;;;0.40;0.20;;;18.90;99.90;;;;;;5031647;28;20422;-66
2022/06/16 00:51:33;;;;;;;0.40;0.30;;;18.80;99.90;;;;;;5031705;28;20485;-66
2022/06/16 00:54:08;;;;;;;1.38;0.52;;;18.90;99.90;;;;;;5030500;28;20415;-66
2022/06/16 00:56:35;;;;;;;0.40;0.20;;;18.80;99.90;;;;;;5031424;28;20403;-66
2022/06/16 00:59:03;;;;;;;0.80;0.80;;;18.60;99.90;;;;;;5029940;28;20409;-66
2022/06/16 01:01:31;;;;;;;2.00;1.20;;;18.70;99.90;;;;;;5031575;28;20467;-67
2022/06/16 01:06:44;;;;;;;0.40;0.20;;;18.80;99.90;;;;;;5031321;28;20446;-66
2022/06/16 01:09:19;;;;;;;0.40;0.20;;;18.80;99.90;;;;;;5030142;28;20393;-66
2022/06/16 01:15:14;;;;;;;0.70;0.70;;;18.90;99.90;;;;;;5030976;28;20454;-67
2022/06/16 01:17:51;;;;;;;0.40;0.40;;;19.00;99.90;;;;;;5030784;28;20521;-66
2022/06/16 01:20:55;;;;;;;0.40;0.20;;;19.10;99.90;;;;;;5030495;28;20783;-67
2022/06/16 01:23:26;;;;;;;0.40;0.30;;;19.20;99.90;;;;;;4988510;28;20394;-66
2022/06/16 01:26:29;;;;;;;0.40;0.20;;;19.20;99.90;;;;;;4988923;28;20442;-66
2022/06/16 01:29:08;;;;;;;0.40;0.20;;;19.20;99.90;;;;;;5014431;28;20414;-66
2022/06/16 01:31:59;;;;;;;0.68;0.68;;;19.30;99.90;;;;;;5030674;28;20395;-66
2022/06/16 01:34:56;;;;;;;0.40;0.25;;;19.30;99.90;;;;;;5030418;28;20437;-66
2022/06/16 01:37:35;;;;;;;0.40;0.20;;;19.20;99.90;;;;;;5029154;28;20409;-66
2022/06/16 01:40:09;;;;;;;0.40;0.30;;;19.20;99.90;;;;;;5030624;28;20467;-66
2022/06/16 01:42:45;;;;;;;0.40;0.30;;;19.10;99.90;;;;;;5030529;28;20399;-66
2022/06/16 01:45:20;;;;;;;0.70;0.70;;;19.30;99.90;;;;;;5029757;28;20414;-66
2022/06/16 01:47:51;;;;;;;1.00;0.90;;;19.30;99.90;;;;;;5030502;28;20489;-66
2022/06/16 01:50:41;;;;;;;0.80;0.60;;;19.40;99.90;;;;;;5029777;28;20387;-66
2022/06/16 01:53:16;;;;;;;0.40;0.25;;;19.30;99.90;;;;;;5029574;28;20445;-66
2022/06/16 01:55:50;;;;;;;0.40;0.30;;;19.40;99.90;;;;;;5030725;28;20415;-66
2022/06/16 01:58:22;;;;;;;0.40;0.30;;;19.50;99.90;;;;;;5028552;28;20411;-66
2022/06/16 02:00:53;;;;;;;0.40;0.30;;;19.50;99.90;;;;;;5030237;28;20446;-66
2022/06/16 02:03:28;;;;;;;0.40;0.20;;;19.40;99.90;;;;;;5021416;28;20410;-66
2022/06/16 02:05:58;;;;;;;0.40;0.30;;;19.30;99.90;;;;;;5030409;28;20510;-66
2022/06/16 02:08:39;;;;;;;0.40;0.30;;;19.30;99.90;;;;;;5029413;28;20456;-66
2022/06/16 02:11:16;;;;;;;0.40;0.30;;;19.40;99.90;;;;;;5029610;28;20462;-66
2022/06/16 02:14:13;;;;;;;0.40;0.20;;;19.40;99.90;;;;;;5030409;28;20391;-66
2022/06/16 02:16:40;;;;;;;0.40;0.30;;;19.30;99.90;;;;;;5030559;28;20406;-66
2022/06/16 02:19:11;;;;;;;0.40;0.20;;;19.30;99.90;;;;;;5029438;28;20427;-66
2022/06/16 02:21:39;;;;;;;0.40;0.20;;;19.10;99.90;;;;;;5030473;28;20474;-66
2022/06/16 02:24:08;;;;;;;0.40;0.20;;;19.20;99.90;;;;;;5030303;28;20772;-67
2022/06/16 02:26:34;;;;;;;0.40;0.30;;;19.20;99.90;;;;;;5033567;28;20760;-66
2022/06/16 02:29:18;;;;;;;0.40;0.30;;;19.20;99.90;;;;;;5034172;28;20419;-66
2022/06/16 02:32:01;;;;;;;0.40;0.20;;;19.20;99.90;;;;;;5034748;28;20446;-66
2022/06/16 02:35:04;;;;;;;0.40;0.20;;;19.00;99.90;;;;;;5033118;28;20517;-66
2022/06/16 02:37:48;;;;;;;0.40;0.30;;;19.00;99.90;;;;;;5034026;28;20856;-67
2022/06/16 02:40:32;;;;;;;0.40;0.30;;;19.00;99.90;;;;;;5033266;28;20398;-66
2022/06/16 02:43:31;;;;;;;0.40;0.30;;;19.00;99.90;;;;;;5033983;28;20398;-66
2022/06/16 02:46:00;;;;;;;0.40;0.20;;;19.10;99.90;;;;;;5033702;28;20883;-66
2022/06/16 02:48:45;;;;;;;0.40;0.20;;;19.20;99.90;;;;;;5033096;28;21013;-66
2022/06/16 02:51:19;;;;;;;0.50;0.40;;;19.30;99.90;;;;;;5013447;28;20397;-66
2022/06/16 02:54:20;;;;;;;1.10;0.70;;;19.30;99.90;;;;;;5025355;28;20441;-67
2022/06/16 02:57:05;;;;;;;0.40;0.20;;;19.30;99.90;;;;;;5033372;28;20934;-66
2022/06/16 02:59:44;;;;;;;0.40;0.40;;;19.30;99.90;;;;;;5032783;28;20405;-66
2022/06/16 03:02:15;;;;;;;0.40;0.20;;;19.30;99.90;;;;;;5033100;28;20399;-66
2022/06/16 03:04:47;;;;;;;0.40;0.20;;;19.40;99.90;;;;;;5033217;28;20406;-66
2022/06/16 03:07:15;;;;;;;0.40;0.20;;;19.50;99.90;;;;;;5032379;28;20770;-66
2022/06/16 03:09:41;;;;;;;0.40;0.40;;;19.60;99.90;;;;;;5033404;28;20419;-66
2022/06/16 03:12:09;;;;;;;0.40;0.20;;;19.60;99.90;;;;;;5032646;28;20886;-66
2022/06/16 03:14:35;;;;;;;0.40;0.30;;;19.60;99.90;;;;;;5032199;28;20454;-66
2022/06/16 03:17:04;;;;;;;0.40;0.30;;;19.50;99.90;;;;;;5033345;28;20411;-66
2022/06/16 03:19:29;;;;;;;0.43;0.43;;;19.40;99.90;;;;;;5031849;28;20453;-66
2022/06/16 03:21:56;;;;;;;0.60;0.60;;;19.30;99.90;;;;;;5033191;28;20395;-66
2022/06/16 03:24:22;;;;;;;0.40;0.30;;;19.20;99.90;;;;;;5032376;28;20486;-66
2022/06/16 03:26:48;;;;;;;0.40;0.30;;;19.20;99.90;;;;;;5033380;28;20414;-66
2022/06/16 03:29:14;;;;;;;0.40;0.20;;;19.20;99.90;;;;;;5031893;28;20391;-66
2022/06/16 03:31:40;;;;;;;0.40;0.40;;;19.20;99.90;;;;;;5033098;28;20438;-66
2022/06/16 03:34:06;;;;;;;0.40;0.20;;;19.20;99.90;;;;;;5032660;28;20419;-66
2022/06/16 03:36:32;;;;;;;1.10;1.00;;;19.20;99.90;;;;;;5031552;28;20387;-66
2022/06/16 03:38:58;;;;;;;0.40;0.20;;;19.20;99.90;;;;;;5033473;28;20445;-66
2022/06/16 03:41:23;;;;;;;0.50;0.50;;;19.10;99.90;;;;;;5032216;28;20415;-66
2022/06/16 03:43:49;;;;;;;1.20;0.70;;;19.00;99.90;;;;;;5033201;28;20450;-66
2022/06/16 03:46:16;;;;;;;0.40;0.30;;;18.90;99.90;;;;;;5030736;28;20921;-66
2022/06/16 03:48:42;;;;;;;0.50;0.50;;;19.00;99.90;;;;;;5032545;28;20759;-66
2022/06/16 03:51:09;;;;;;;0.50;0.50;;;19.00;99.90;;;;;;5032240;28;20872;-66
2022/06/16 03:53:36;;;;;;;1.45;0.90;;;18.90;99.90;;;;;;5032263;28;20395;-66
2022/06/16 03:56:02;;;;;;;0.40;0.20;;;18.90;99.90;;;;;;5032291;28;20421;-66
2022/06/16 03:58:28;;;;;;;0.40;0.20;;;18.90;99.90;;;;;;5028306;28;20485;-66
2022/06/16 04:00:53;;;;;;;0.40;0.30;;;19.00;99.90;;;;;;5032482;28;20833;-66
2022/06/16 04:06:03;;;;;;;0.50;0.50;;;19.10;99.90;;;;;;5032045;28;20487;-66
2022/06/16 04:08:29;;;;;;;0.40;0.40;;;19.10;99.90;;;;;;5031136;28;20607;-66
2022/06/16 04:10:56;;;;;;;0.40;0.20;;;19.10;99.90;;;;;;5030942;28;20478;-66
2022/06/16 04:13:21;;;;;;;0.60;0.60;;;19.20;99.90;;;;;;5031639;28;20394;-66
2022/06/16 04:15:47;;;;;;;0.40;0.30;;;19.30;99.90;;;;;;5032319;28;20875;-66
2022/06/16 04:18:13;;;;;;;0.40;0.20;;;19.20;99.90;;;;;;5031059;28;20422;-66
2022/06/16 04:20:39;;;;;;;0.40;0.40;;;19.30;99.90;;;;;;5032415;28;20863;-66
2022/06/16 04:23:10;;;;;;;0.70;0.70;;;19.30;99.90;;;;;;5033664;28;20392;-67
2022/06/16 04:25:35;;;;;;;0.40;0.30;;;19.30;99.90;;;;;;5013626;28;20396;-66
2022/06/16 04:28:05;;;;;;;3.30;0.60;;;19.40;99.90;;;;;;5012694;28;20381;-67
2022/06/16 04:30:31;;;;;;;0.40;0.20;;;19.30;99.90;;;;;;5011952;28;20392;-66
2022/06/16 04:32:58;;;;;;;0.40;0.30;;;19.30;99.90;;;;;;5012250;28;20989;-67
2022/06/16 04:35:25;;;;;;;0.40;0.20;;;19.40;99.90;;;;;;5011396;28;20415;-66
2022/06/16 04:37:51;;;;;;;0.60;0.60;;;19.30;99.90;;;;;;5012411;28;20388;-67
2022/06/16 04:40:17;;;;;;;0.40;0.30;;;19.40;99.90;;;;;;5011495;28;20381;-67
2022/06/16 04:42:43;;;;;;;0.40;0.30;;;19.40;99.90;;;;;;5012310;28;20377;-67
2022/06/16 04:45:10;;;;;;;0.40;0.30;;;19.50;99.90;;;;;;5012132;28;20389;-67
2022/06/16 04:47:40;;;;;;;0.40;0.40;;;19.60;99.90;;;;;;5010526;28;20405;-67
2022/06/16 04:50:07;;;;;;;0.40;0.30;;;19.60;99.90;;;;;;5012045;28;20452;-66
2022/06/16 04:52:33;;;;;;;0.50;0.45;;;19.70;99.90;;;;;;5011280;28;20393;-66
2022/06/16 04:54:59;;;;;;;0.40;0.20;;;19.80;99.90;;;;;;5011816;28;20439;-66
2022/06/16 04:57:25;;;;;;;0.40;0.30;;;19.80;99.90;;;;;;5028815;28;20391;-66
2022/06/16 04:59:50;;;;;;;0.40;0.30;;;19.80;99.90;;;;;;5029378;28;20448;-66
2022/06/16 05:02:16;;;;;;;0.40;0.30;;;19.80;99.90;;;;;;5030412;28;20417;-66
2022/06/16 05:04:44;;;;;;;0.40;0.20;;;19.90;99.90;;;;;;5031529;28;20411;-66
2022/06/16 05:07:11;;;;;;;0.80;0.70;;;20.00;99.90;;;;;;5030949;28;20387;-66
2022/06/16 05:09:36;;;;;;;0.40;0.30;;;20.00;99.90;;;;;;5030594;28;20437;-66
2022/06/16 05:12:02;;;;;;;0.40;0.20;;;20.10;99.90;;;;;;5031686;28;20383;-66
2022/06/16 05:14:28;;;;;;;0.40;0.40;;;20.10;99.90;;;;;;5030084;28;20415;-66
2022/06/16 05:16:53;;;;;;;0.40;0.20;;;20.10;99.90;;;;;;5031037;28;20449;-66
2022/06/16 05:19:19;;;;;;;0.43;0.43;;;20.10;99.90;;;;;;5029553;28;20403;-67
2022/06/16 05:21:45;;;;;;;0.70;0.70;;;20.20;99.90;;;;;;5011569;28;20385;-67
2022/06/16 05:24:10;;;;;;;0.40;0.20;;;20.30;99.90;;;;;;5028283;28;20409;-67
2022/06/16 05:26:36;;;;;;;0.40;0.30;;;20.40;99.90;;;;;;5030106;28;20410;-66
2022/06/16 05:29:02;;;;;;;0.40;0.30;;;20.50;99.90;;;;;;5030815;28;20395;-66
2022/06/16 05:31:27;;;;;;;2.00;0.70;;;20.40;99.90;;;;;;5030253;28;20477;-66
2022/06/16 05:33:53;;;;;;;0.40;0.30;;;20.40;99.90;;;;;;5030574;28;20426;-67
2022/06/16 05:36:19;;;;;;;0.40;0.20;;;20.40;99.90;;;;;;5030561;28;20852;-66
2022/06/16 05:38:45;;;;;;;0.50;0.47;;;20.50;99.90;;;;;;5030905;28;20382;-67
2022/06/16 05:41:14;;;;;;;0.40;0.20;;;20.50;99.90;;;;;;5029398;28;20479;-67
2022/06/16 05:43:41;;;;;;;0.40;0.20;;;20.50;99.90;;;;;;5030278;28;20401;-65
2022/06/16 05:46:13;;;;;;;0.40;0.30;;;20.60;99.90;;;;;;5030628;28;20868;-66
2022/06/16 05:48:38;;;;;;;0.50;0.50;;;20.70;99.90;;;;;;5030008;28;20415;-66
2022/06/16 05:51:09;;;;;;;0.40;0.30;;;20.90;99.90;;;;;;5030820;28;20413;-66
2022/06/16 05:53:35;;;;;;;0.60;0.60;;;21.00;99.90;;;;;;5029708;28;20392;-65
2022/06/16 05:56:01;;;;;;;0.40;0.20;;;21.10;99.90;;;;;;5030854;28;20461;-65
2022/06/16 05:58:27;;;;;;;0.40;0.30;;;21.10;99.90;;;;;;5023068;28;20393;-66
2022/06/16 06:00:53;;;;;;;0.40;0.20;;;21.20;99.90;;;;;;5037011;28;20398;-66
2022/06/16 06:03:19;;;;;;;0.40;0.30;;;21.30;99.90;;;;;;5036345;28;20390;-66
2022/06/16 06:05:44;;;;;;;0.40;0.30;;;21.30;99.90;;;;;;5037161;28;20402;-66
2022/06/16 06:16:35;;;;;;;0.50;0.40;;;21.70;99.90;;;;;;5036475;28;20405;-66
2022/06/16 06:22:02;;;;;;;0.85;0.85;;;21.90;99.90;;;;;;5036775;28;20390;-66
2022/06/16 06:24:39;;;;;;;0.50;0.40;;;22.00;99.90;;;;;;5035981;28;20407;-66
2022/06/16 06:27:23;;;;;;;0.50;0.30;;;22.20;99.90;;;;;;5036601;28;20395;-65
2022/06/16 06:29:50;;;;;;;0.50;0.40;;;22.70;99.90;;;;;;5036224;28;20461;-66
2022/06/16 06:32:18;;;;;;;0.40;0.28;;;23.20;99.90;;;;;;5017636;28;20812;-66
2022/06/16 06:34:44;;;;;;;1.10;0.70;;;23.40;99.90;;;;;;5036670;28;20403;-66
2022/06/16 06:37:12;;;;;;;0.43;0.30;;;23.50;99.90;;;;;;5036353;28;20390;-66
2022/06/16 06:39:38;;;;;;;0.80;0.80;;;23.50;99.90;;;;;;5035676;28;20394;-66
2022/06/16 06:42:04;;;;;;;0.40;0.30;;;23.40;99.90;;;;;;5031473;28;20797;-66
2022/06/16 06:44:31;;;;;;;0.40;0.20;;;23.30;99.90;;;;;;5029351;28;20406;-66
2022/06/16 06:46:57;;;;;;;0.40;0.20;;;23.30;99.90;;;;;;5035923;28;20816;-66
2022/06/16 06:49:23;;;;;;;0.50;0.40;;;23.40;99.90;;;;;;5017719;28;21032;-66
2022/06/16 06:51:48;;;;;;;0.40;0.30;;;23.70;99.90;;;;;;5036964;28;20433;-66
2022/06/16 06:54:14;;;;;;;0.40;0.30;;;23.80;99.90;;;;;;5036965;28;20461;-66
2022/06/16 06:56:40;;;;;;;0.40;0.30;;;23.70;99.90;;;;;;5036055;28;20611;-66
2022/06/16 06:59:10;;;;;;;0.45;0.40;;;23.70;99.90;;;;;;5037012;28;20390;-66
2022/06/16 07:01:35;;;;;;;0.50;0.50;;;23.80;99.90;;;;;;5036013;28;20859;-66
2022/06/16 07:04:02;;;;;;;0.40;0.30;;;23.90;99.90;;;;;;5036837;28;20413;-66
2022/06/16 07:06:29;;;;;;;0.50;0.40;;;23.80;99.90;;;;;;5035970;28;20482;-66
2022/06/16 07:08:58;;;;;;;0.40;0.40;;;23.90;99.90;;;;;;5036803;28;20387;-66
2022/06/16 07:11:24;;;;;;;0.60;0.60;;;23.90;99.90;;;;;;5032152;28;20387;-66
2022/06/16 07:13:50;;;;;;;0.40;0.20;;;23.70;99.90;;;;;;5033646;28;20403;-67
2022/06/16 07:16:16;;;;;;;0.50;0.50;;;23.80;99.90;;;;;;5033455;28;20395;-67
2022/06/16 07:18:44;;;;;;;0.60;0.60;;;23.90;99.90;;;;;;5032168;28;20426;-67
2022/06/16 07:21:11;;;;;;;1.30;0.90;;;23.90;99.90;;;;;;5033472;28;20379;-67
2022/06/16 07:23:37;;;;;;;0.40;0.30;;;23.90;99.90;;;;;;5032565;28;20383;-66
2022/06/16 07:26:03;;;;;;;0.65;0.40;;;24.00;99.90;;;;;;5033441;28;20383;-67
2022/06/16 07:28:29;;;;;;;0.40;0.30;;;24.20;99.90;;;;;;5032303;28;20384;-67
2022/06/16 07:30:55;;;;;;;0.60;0.50;;;24.30;99.90;;;;;;5033375;28;20390;-67
2022/06/16 07:33:23;;;;;;;0.40;0.30;;;24.40;99.90;;;;;;5032637;28;20411;-65
2022/06/16 07:35:50;;;;;;;0.50;0.50;;;24.60;99.90;;;;;;5032894;28;20502;-66
2022/06/16 07:38:16;;;;;;;1.30;0.60;;;24.50;99.90;;;;;;5032970;28;20387;-65
2022/06/16 07:40:42;;;;;;;0.40;0.40;;;24.60;99.90;;;;;;5032235;28;20385;-66
2022/06/16 07:43:08;;;;;;;0.40;0.30;;;24.80;99.90;;;;;;5032914;28;20378;-66
2022/06/16 07:45:35;;;;;;;0.40;0.20;;;24.70;99.90;;;;;;5032296;28;20436;-65
2022/06/16 07:48:02;;;;;;;0.40;0.30;;;24.70;99.90;;;;;;5029854;28;20414;-65
2022/06/16 07:50:30;;;;;;;0.60;0.60;;;24.70;99.90;;;;;;5029203;28;20397;-66
2022/06/16 07:52:55;;;;;;;0.70;0.60;;;24.80;99.90;;;;;;5029944;28;20847;-66
2022/06/16 07:55:21;;;;;;;0.53;0.53;;;25.00;99.90;;;;;;5019284;28;20504;-66
2022/06/16 07:57:49;;;;;;;0.50;0.50;;;24.90;99.90;;;;;;5028462;28;20385;-66
2022/06/16 08:00:22;;;;;;;0.50;0.50;;;25.00;99.90;;;;;;5012896;28;20385;-66
2022/06/16 08:02:48;;;;;;;0.82;0.82;;;25.20;99.90;;;;;;5018442;28;20395;-66
2022/06/16 08:05:14;;;;;;;0.80;0.60;;;25.10;99.90;;;;;;5025515;28;20874;-66
2022/06/16 08:07:41;;;;;;;0.50;0.40;;;25.20;99.90;;;;;;5031360;28;20383;-66
2022/06/16 08:10:11;;;;;;;0.40;0.30;;;25.10;99.90;;;;;;5032448;28;20388;-67
2022/06/16 08:12:37;;;;;;;0.40;0.20;;;25.10;99.60;;;;;;5030485;28;20745;-66
2022/06/16 08:15:03;;;;;;;0.40;0.20;;;25.10;99.90;;;;;;5030078;28;20430;-67
2022/06/16 08:17:32;;;;;;;0.40;0.30;;;25.00;99.90;;;;;;5030718;28;20407;-65
2022/06/16 08:19:59;;;;;;;0.40;0.30;;;25.10;99.90;;;;;;5032284;28;20871;-66
2022/06/16 08:22:26;;;;;;;0.40;0.30;;;25.20;98.50;;;;;;5031528;28;20417;-66
2022/06/16 08:24:52;;;;;;;0.40;0.30;;;25.10;98.30;;;;;;5031452;28;20395;-66
2022/06/16 08:27:22;;;;;;;0.40;0.30;;;25.30;98.10;;;;;;5032062;28;20463;-66
2022/06/16 08:29:48;;;;;;;0.40;0.30;;;25.60;93.30;;;;;;5031279;28;20388;-67
2022/06/16 08:32:16;;;;;;;0.40;0.30;;;25.60;91.50;;;;;;5026518;28;20408;-66
2022/06/16 08:34:42;;;;;;;0.40;0.20;;;25.50;92.90;;;;;;5029160;28;20419;-66
2022/06/16 08:37:08;;;;;;;0.50;0.40;;;25.40;94.00;;;;;;5022376;28;20385;-66
2022/06/16 08:39:35;;;;;;;0.80;0.80;;;25.50;94.30;;;;;;5013569;28;20422;-66
2022/06/16 08:42:16;;;;;;;0.40;0.30;;;25.60;93.10;;;;;;5026947;28;20411;-66
2022/06/16 08:45:06;;;;;;;0.40;0.20;;;25.80;92.10;;;;;;5030915;28;20474;-66
2022/06/16 08:47:39;;;;;;;0.70;0.60;;;25.80;92.20;;;;;;5030741;28;20769;-65
2022/06/16 08:50:14;;;;;;;0.40;0.40;;;25.80;90.80;;;;;;5027290;28;20395;-65
2022/06/16 08:52:56;;;;;;;0.40;0.30;;;25.80;90.30;;;;;;5019704;28;20439;-65
2022/06/16 08:55:31;;;;;;;0.40;0.30;;;25.70;91.30;;;;;;5026598;28;20415;-66
2022/06/16 08:58:16;;;;;;;0.40;0.30;;;25.80;88.20;;;;;;5027833;28;20777;-65
2022/06/16 09:00:48;;;;;;;0.40;0.20;;;26.00;89.60;;;;;;5024368;28;20430;-65
2022/06/16 09:03:45;;;;;;;0.40;0.30;;;25.80;89.80;;;;;;5019605;28;20385;-65
2022/06/16 09:06:19;;;;;;;0.40;0.22;;;26.00;89.30;;;;;;5021168;28;20403;-66
2022/06/16 09:08:50;;;;;;;0.40;0.30;;;26.00;87.10;;;;;;5018187;28;20773;-65
2022/06/16 09:11:34;;;;;;;0.40;0.30;;;25.90;84.60;;;;;;5018431;28;20379;-66
2022/06/16 09:14:15;;;;;;;0.40;0.30;;;26.00;85.00;;;;;;5017791;28;20399;-66
2022/06/16 09:17:03;;;;;;;0.40;0.30;;;25.90;85.70;;;;;;5017491;28;20401;-66
2022/06/16 09:20:08;;;;;;;0.80;0.80;;;25.80;87.50;;;;;;5016093;28;20477;-66
2022/06/16 09:22:37;;;;;;;0.40;0.30;;;26.00;84.30;;;;;;5018619;28;20399;-66
2022/06/16 09:25:08;;;;;;;0.40;0.20;;;25.90;87.20;;;;;;5017210;28;20408;-66
2022/06/16 09:27:50;;;;;;;0.50;0.50;;;26.00;87.50;;;;;;5017869;28;20403;-66
2022/06/16 09:30:24;;;;;;;0.80;0.70;;;26.20;81.90;;;;;;5020122;28;20447;-66
2022/06/16 09:33:04;;;;;;;0.40;0.20;;;26.10;84.30;;;;;;5019335;28;20430;-66
2022/06/16 09:35:31;;;;;;;0.40;0.20;;;26.40;79.30;;;;;;5018681;28;20420;-66
2022/06/16 09:38:22;;;;;;;0.40;0.30;;;26.60;74.40;;;;;;5018148;28;20399;-66
2022/06/16 09:40:57;;;;;;;0.40;0.28;;;26.50;73.20;;;;;;5018887;28;20488;-66
2022/06/16 09:43:32;;;;;;;0.40;0.30;;;26.50;70.20;;;;;;5018166;28;20858;-66
2022/06/16 09:46:21;;;;;;;0.43;0.32;;;26.50;64.90;;;;;;5020312;28;20414;-66
2022/06/16 09:48:54;;;;;;;0.47;0.38;;;26.60;67.50;;;;;;5029722;28;20419;-66
2022/06/16 09:51:57;;;;;;;0.40;0.30;;;26.40;68.00;;;;;;5022904;28;20397;-66
2022/06/16 09:54:29;;;;;;;0.40;0.20;;;26.50;68.00;;;;;;5012167;28;20449;-67
2022/06/16 09:57:17;;;;;;;0.50;0.50;;;26.70;71.10;;;;;;5020039;28;20459;-66
2022/06/16 10:00:09;;;;;;;0.40;0.30;;;26.70;72.40;;;;;;5024159;28;20399;-66
2022/06/16 10:02:52;;;;;;;1.00;0.70;;;26.90;71.60;;;;;;5020564;28;20463;-66
2022/06/16 10:05:25;;;;;;;0.50;0.50;;;26.90;72.20;;;;;;5026734;28;20387;-66
2022/06/16 10:07:58;;;;;;;0.40;0.40;;;26.80;69.70;;;;;;5018190;28;21981;-66
2022/06/16 10:10:30;;;;;;;0.50;0.50;;;26.70;70.10;;;;;;5025255;28;20407;-68
2022/06/16 10:12:59;;;;;;;0.40;0.20;;;27.00;72.50;;;;;;5023222;28;20748;-66
2022/06/16 10:15:47;;;;;;;0.40;0.22;;;27.00;69.80;;;;;;5019771;28;20415;-67
2022/06/16 10:18:13;;;;;;;2.70;0.40;;;27.10;72.50;;;;;;5019730;28;20415;-66
2022/06/16 10:20:39;;;;;;;0.40;0.20;;;26.90;70.00;;;;;;5016972;28;20395;-66
2022/06/16 10:23:18;;;;;;;0.50;0.40;;;27.00;70.60;;;;;;5018911;28;20397;-66
2022/06/16 10:26:05;;;;;;;0.40;0.20;;;27.00;68.00;;;;;;5017749;28;20482;-67
2022/06/16 10:28:38;;;;;;;0.40;0.30;;;27.20;70.40;;;;;;5020504;28;20409;-66
2022/06/16 10:31:06;;;;;;;0.40;0.20;;;27.10;71.10;;;;;;5022027;28;20407;-67
2022/06/16 10:33:35;;;;;;;0.40;0.40;;;27.10;70.10;;;;;;5018259;28;20403;-66
2022/06/16 10:36:07;;;;;;;0.40;0.30;;;27.20;76.90;;;;;;5016487;28;20415;-66
2022/06/16 10:38:43;;;;;;;0.40;0.20;;;27.40;69.80;;;;;;5022406;28;20420;-67
2022/06/16 10:41:39;;;;;;;0.43;0.38;;;27.30;70.40;;;;;;5022349;28;20905;-67
2022/06/16 10:44:09;;;;;;;1.10;0.70;;;27.20;68.60;;;;;;5023667;28;20891;-66
2022/06/16 10:46:48;;;;;;;0.40;0.30;;;27.40;71.60;;;;;;5021913;28;20885;-66
2022/06/16 10:49:18;;;;;;;0.40;0.30;;;27.60;69.10;;;;;;5023437;28;20500;-67
2022/06/16 10:51:58;;;;;;;0.40;0.30;;;27.70;70.50;;;;;;5025298;28;20403;-67
2022/06/16 10:54:33;;;;;;;0.40;0.40;;;27.60;68.50;;;;;;5023695;28;20426;-67
2022/06/16 10:57:17;;;;;;;0.60;0.60;;;27.80;69.20;;;;;;5027228;28;20418;-67
2022/06/16 11:00:11;;;;;;;0.40;0.30;;;27.90;69.10;;;;;;5020355;28;20400;-66
2022/06/16 11:02:57;;;;;;;0.40;0.20;;;27.80;69.90;;;;;;5024462;28;20761;-66
2022/06/16 11:05:24;;;;;;;0.50;0.50;;;27.80;67.90;;;;;;5020600;28;20457;-67
2022/06/16 11:07:50;;;;;;;0.40;0.30;;;28.00;67.30;;;;;;5022602;28;20475;-67
2022/06/16 11:10:33;;;;;;;0.55;0.30;;;28.10;66.40;;;;;;5019322;28;20888;-67
2022/06/16 11:12:59;;;;;;;0.40;0.30;;;27.90;68.40;;;;;;5025106;28;20443;-68
2022/06/16 11:15:34;;;;;;;0.50;0.30;;;28.10;66.20;;;;;;5023246;28;20431;-67
2022/06/16 11:18:03;;;;;;;0.40;0.30;;;28.20;67.50;;;;;;5020707;28;21445;-67
2022/06/16 11:20:39;;;;;;;0.40;0.40;;;28.30;67.20;;;;;;5016687;28;20789;-67
2022/06/16 11:23:28;;;;;;;0.40;0.30;;;28.50;67.60;;;;;;5017213;28;20388;-66
2022/06/16 11:26:12;;;;;;;0.40;0.30;;;28.70;64.70;;;;;;5017888;28;20410;-66
2022/06/16 11:29:10;;;;;;;0.40;0.30;;;28.70;63.00;;;;;;5023131;28;20477;-67
2022/06/16 11:31:48;;;;;;;1.50;0.70;;;29.00;61.60;;;;;;5018444;28;20422;-67
2022/06/16 11:34:32;;;;;;;0.50;0.40;;;29.20;61.00;;;;;;5022800;28;20397;-68
2022/06/16 11:37:12;;;;;;;0.40;0.20;;;28.60;61.40;;;;;;5020801;28;20495;-67
2022/06/16 11:40:08;;;;;;;0.40;0.20;;;29.20;60.90;;;;;;5026455;28;20415;-69
2022/06/16 11:42:56;;;;;;;0.40;0.30;;;29.90;59.80;;;;;;5023213;28;20405;-67
2022/06/16 11:45:38;;;;;;;0.40;0.20;;;29.90;59.20;;;;;;5025018;28;20754;-67
2022/06/16 11:48:35;;;;;;;0.40;0.30;;;30.70;60.20;;;;;;5022158;28;20430;-66
2022/06/16 11:51:19;;;;;;;0.40;0.22;;;31.40;56.10;;;;;;5025290;28;20392;-67
2022/06/16 11:53:53;;;;;;;0.40;0.20;;;32.50;54.30;;;;;;5023325;28;20424;-67
2022/06/16 11:56:41;;;;;;;0.40;0.20;;;30.90;55.00;;;;;;5021860;28;20422;-67
2022/06/16 11:59:36;;;;;;;0.40;0.30;;;31.30;55.40;;;;;;5021896;28;20802;-66
2022/06/16 12:02:19;;;;;;;0.40;0.30;;;31.80;55.50;;;;;;5015072;28;20411;-67
2022/06/16 12:04:51;;;;;;;0.40;0.20;;;32.20;60.00;;;;;;5025970;28;20409;-67
2022/06/16 12:07:39;;;;;;;0.40;0.30;;;32.60;59.30;;;;;;5024992;28;20432;-67
2022/06/16 12:10:23;;;;;;;0.40;0.20;;;32.70;57.10;;;;;;5023380;28;20401;-67
2022/06/16 12:13:02;;;;;;;0.40;0.20;;;32.80;57.90;;;;;;5025552;28;20405;-67
2022/06/16 12:15:36;;;;;;;0.40;0.20;;;33.90;50.70;;;;;;5013941;28;20413;-67
2022/06/16 12:18:14;;;;;;;0.40;0.20;;;33.30;50.50;;;;;;5031175;28;20427;-67
2022/06/16 12:21:17;;;;;;;0.40;0.20;;;33.00;52.70;;;;;;5030867;28;20512;-66
2022/06/16 12:24:00;;;;;;;0.40;0.20;;;33.30;49.70;;;;;;5011726;28;20393;-67
2022/06/16 12:26:36;;;;;;;0.70;0.50;;;32.70;50.60;;;;;;5021683;28;20406;-67
2022/06/16 12:29:39;;;;;;;0.40;0.20;;;31.60;51.60;;;;;;5024731;28;20399;-67
2022/06/16 12:32:16;;;;;;;0.40;0.20;;;31.90;52.80;;;;;;4997939;28;20495;-67
2022/06/16 12:34:41;;;;;;;0.50;0.50;;;32.40;51.90;;;;;;5040816;28;20412;-66
2022/06/16 12:37:14;;;;;;;0.40;0.30;;;33.20;51.10;;;;;;5026795;28;20399;-66
2022/06/16 12:39:45;;;;;;;0.40;0.20;;;32.60;51.60;;;;;;5029387;28;20410;-67
2022/06/16 12:42:16;;;;;;;0.40;0.20;;;32.20;51.30;;;;;;5028020;28;20456;-66
2022/06/16 12:44:56;;;;;;;0.40;0.20;;;32.80;50.20;;;;;;5029354;28;20401;-67
2022/06/16 12:47:33;;;;;;;0.50;0.50;;;33.00;50.00;;;;;;5031652;28;20399;-67
2022/06/16 12:50:08;;;;;;;0.40;0.20;;;31.60;51.00;;;;;;5011320;28;20444;-66
2022/06/16 12:52:58;;;;;;;0.40;0.20;;;31.80;54.10;;;;;;5027101;28;20758;-66
2022/06/16 12:55:37;;;;;;;0.60;0.60;;;31.60;52.00;;;;;;5012225;28;20443;-66
2022/06/16 12:58:22;;;;;;;0.40;0.20;;;31.40;53.30;;;;;;5031024;28;20871;-66
2022/06/16 13:00:55;;;;;;;0.63;0.63;;;31.40;52.30;;;;;;5030902;28;20848;-66
2022/06/16 13:03:38;;;;;;;0.43;0.28;;;32.00;54.90;;;;;;5031828;28;20732;-66
2022/06/16 13:06:05;;;;;;;0.40;0.30;;;32.20;52.30;;;;;;5031373;28;20386;-66
2022/06/16 13:08:35;;;;;;;0.40;0.30;;;32.50;54.40;;;;;;5030670;28;20470;-67
2022/06/16 13:11:07;;;;;;;0.40;0.20;;;31.30;53.80;;;;;;5030510;28;20383;-67
2022/06/16 13:13:45;;;;;;;0.40;0.20;;;30.10;56.70;;;;;;5031494;28;20409;-66
2022/06/16 13:16:17;;;;;;;0.40;0.30;;;29.90;58.80;;;;;;5031203;28;20426;-66
2022/06/16 13:18:51;;;;;;;0.40;0.20;;;30.60;54.10;;;;;;5029724;28;20952;-66
2022/06/16 13:21:26;;;;;;;0.60;0.50;;;31.40;55.80;;;;;;5029445;28;20399;-67
2022/06/16 13:24:10;;;;;;;0.40;0.30;;;30.90;51.30;;;;;;5025498;28;20407;-66
2022/06/16 13:26:54;;;;;;;0.40;0.20;;;31.40;53.30;;;;;;5030152;28;20903;-66
2022/06/16 13:29:20;;;;;;;0.70;0.60;;;30.70;52.50;;;;;;5031009;28;20418;-66
2022/06/16 13:31:48;;;;;;;0.40;0.20;;;30.60;54.50;;;;;;5029372;28;20395;-66
2022/06/16 13:34:18;;;;;;;0.40;0.20;;;30.90;57.70;;;;;;5031007;28;20391;-66
2022/06/16 13:36:44;;;;;;;0.40;0.30;;;30.70;53.40;;;;;;5030313;28;20475;-66